Time;durP1;ratioP1;P1;durP2;ratioP2;P2;SDS_P1;SDS_P2;PMS_P1;PMS_P2;Temp;Humidity;BMP_temperature;BMP_pressure;BME280_temperature;BME280_humidity;BME280_pressure;Samples;Min_cycle;Max_cycle;Signal;HPM_P1;HPM_P2
2021/12/20 00:00:24;;;;;;;6.18;2.20;;;6.20;99.90;;;;;;5075507;28;20388;-63
2021/12/20 00:02:56;;;;;;;4.22;1.77;;;6.20;99.90;;;;;;5071741;28;20576;-62
2021/12/20 00:05:22;;;;;;;6.70;1.70;;;6.10;99.90;;;;;;5075703;28;20490;-63
2021/12/20 00:07:48;;;;;;;5.47;1.50;;;6.10;99.90;;;;;;5077100;28;20430;-63
2021/12/20 00:10:14;;;;;;;5.35;1.60;;;6.10;99.90;;;;;;5078047;28;20022;-63
2021/12/20 00:12:41;;;;;;;12.75;2.72;;;6.20;99.90;;;;;;5077144;28;20028;-63
2021/12/20 00:15:07;;;;;;;3.42;1.45;;;6.10;99.90;;;;;;5070290;28;20024;-63
2021/12/20 00:17:33;;;;;;;4.55;1.75;;;6.10;99.90;;;;;;5075318;28;20025;-63
2021/12/20 00:19:59;;;;;;;6.88;2.75;;;6.00;99.90;;;;;;5082340;28;20404;-63
2021/12/20 00:22:24;;;;;;;7.45;2.38;;;6.10;99.90;;;;;;5089753;28;20541;-63
2021/12/20 00:24:50;;;;;;;10.98;3.33;;;6.00;99.90;;;;;;5075152;28;20066;-63
2021/12/20 00:27:19;;;;;;;9.85;1.98;;;5.90;99.90;;;;;;5091297;28;20016;-62
2021/12/20 00:29:49;;;;;;;9.90;2.08;;;5.70;99.90;;;;;;5081975;28;20114;-63
2021/12/20 00:32:15;;;;;;;1.92;1.23;;;5.70;99.90;;;;;;5076685;28;20028;-63
2021/12/20 00:34:41;;;;;;;7.40;1.50;;;5.70;99.90;;;;;;5080761;28;20032;-62
2021/12/20 00:40:19;;;;;;;3.38;1.83;;;5.60;99.90;;;;;;5077328;28;20039;-63
2021/12/20 00:42:37;;;;;;;1.60;1.13;;;5.70;99.90;;;;;;5077659;28;20523;-62
2021/12/20 00:45:04;;;;;;;13.38;1.67;;;5.80;99.90;;;;;;5073607;28;20029;-63
2021/12/20 00:47:29;;;;;;;10.52;2.25;;;5.80;99.90;;;;;;5078873;28;20078;-63
2021/12/20 00:49:55;;;;;;;2.08;1.42;;;6.00;99.90;;;;;;5083923;28;20028;-63
2021/12/20 00:52:21;;;;;;;4.47;1.23;;;5.90;99.90;;;;;;5074508;28;20025;-62
2021/12/20 00:54:46;;;;;;;10.50;1.88;;;6.00;99.90;;;;;;5083337;28;20028;-63
2021/12/20 00:57:12;;;;;;;11.70;1.80;;;6.00;99.90;;;;;;5075112;28;20099;-63
2021/12/20 00:59:38;;;;;;;9.50;1.77;;;6.00;99.90;;;;;;5075504;28;20025;-63
2021/12/20 01:02:03;;;;;;;4.30;1.52;;;6.00;99.90;;;;;;5078335;28;20078;-62
2021/12/20 01:04:29;;;;;;;11.18;2.38;;;6.00;99.90;;;;;;5081169;28;20040;-63
2021/12/20 01:06:54;;;;;;;6.50;2.08;;;6.00;99.90;;;;;;5082104;28;20020;-63
2021/12/20 01:09:20;;;;;;;17.40;1.98;;;5.90;99.90;;;;;;5073468;28;20048;-63
2021/12/20 01:11:51;;;;;;;4.03;1.92;;;5.90;99.90;;;;;;5083622;28;20109;-63
2021/12/20 01:14:23;;;;;;;3.53;1.75;;;6.00;99.90;;;;;;5073899;28;20020;-63
2021/12/20 01:16:49;;;;;;;4.07;1.90;;;6.00;99.90;;;;;;5075499;28;20384;-63
2021/12/20 01:19:15;;;;;;;4.55;1.75;;;6.00;99.90;;;;;;5073099;28;20093;-63
2021/12/20 01:21:40;;;;;;;8.35;2.90;;;6.00;99.90;;;;;;5081357;28;20029;-63
2021/12/20 01:24:06;;;;;;;4.65;1.88;;;5.90;99.90;;;;;;5079997;28;20808;-63
2021/12/20 01:26:32;;;;;;;3.03;1.50;;;6.00;99.90;;;;;;5091044;28;20031;-63
2021/12/20 01:28:57;;;;;;;7.57;2.15;;;6.00;99.90;;;;;;5073703;28;20028;-63
2021/12/20 01:31:23;;;;;;;6.68;2.40;;;6.10;99.90;;;;;;5074595;28;20099;-63
2021/12/20 01:33:49;;;;;;;7.32;2.33;;;6.00;99.90;;;;;;5080218;28;20032;-63
2021/12/20 01:36:14;;;;;;;6.35;1.70;;;5.90;99.90;;;;;;5079514;28;20153;-63
2021/12/20 01:38:40;;;;;;;9.07;1.70;;;5.90;99.90;;;;;;5078613;28;20126;-63
2021/12/20 01:41:08;;;;;;;3.97;1.40;;;5.90;99.90;;;;;;5074566;28;20020;-63
2021/12/20 01:43:34;;;;;;;5.63;1.83;;;5.90;99.90;;;;;;5073203;28;20021;-63
2021/12/20 01:46:00;;;;;;;16.60;1.88;;;5.80;99.90;;;;;;5073445;28;20026;-63
2021/12/20 01:48:26;;;;;;;4.05;1.58;;;5.90;99.90;;;;;;5076974;28;20032;-63
2021/12/20 01:51:17;;;;;;;11.80;1.70;;;5.80;99.90;;;;;;5072718;28;20016;-63
2021/12/20 01:53:39;;;;;;;7.40;1.70;;;5.90;99.90;;;;;;5076774;28;20037;-63
2021/12/20 01:56:06;;;;;;;2.83;1.08;;;5.90;99.90;;;;;;5071273;28;20024;-63
2021/12/20 01:58:32;;;;;;;6.00;2.15;;;5.80;99.90;;;;;;5080018;28;20384;-63
2021/12/20 02:03:46;;;;;;;5.00;1.58;;;5.80;99.90;;;;;;5075074;28;20029;-63
2021/12/20 02:06:25;;;;;;;3.03;1.67;;;5.80;99.90;;;;;;5077588;28;20064;-63
2021/12/20 02:08:50;;;;;;;1.95;1.20;;;5.70;99.90;;;;;;5076590;28;20519;-63
2021/12/20 02:11:19;;;;;;;6.60;1.08;;;5.70;99.90;;;;;;5082370;28;20021;-63
2021/12/20 02:13:44;;;;;;;7.60;2.30;;;5.70;99.90;;;;;;5078630;28;20031;-63
2021/12/20 02:16:10;;;;;;;6.65;2.28;;;5.70;99.90;;;;;;5073434;28;20032;-63
2021/12/20 02:18:36;;;;;;;11.73;1.25;;;5.70;99.90;;;;;;5080157;28;20024;-63
2021/12/20 02:21:02;;;;;;;5.13;2.10;;;5.70;99.90;;;;;;5072765;28;20370;-63
2021/12/20 02:23:28;;;;;;;5.40;1.65;;;5.70;99.90;;;;;;5076280;28;20111;-62
2021/12/20 02:25:54;;;;;;;7.38;1.42;;;5.70;99.90;;;;;;5086471;28;20621;-63
2021/12/20 02:28:21;;;;;;;9.65;2.10;;;5.60;99.90;;;;;;5078873;28;20029;-63
2021/12/20 02:38:44;;;;;;;3.13;1.30;;;5.70;99.90;;;;;;5078623;28;20115;-62
2021/12/20 02:41:15;;;;;;;10.55;2.33;;;5.70;99.90;;;;;;5078296;28;20050;-63
2021/12/20 02:43:51;;;;;;;3.92;1.63;;;5.60;99.90;;;;;;5069588;28;20396;-63
2021/12/20 02:46:46;;;;;;;8.20;1.52;;;5.60;99.90;;;;;;5077164;28;20094;-63
2021/12/20 02:49:22;;;;;;;9.13;1.58;;;5.60;99.90;;;;;;5082119;28;20111;-63
2021/12/20 02:51:53;;;;;;;15.40;2.80;;;5.60;99.90;;;;;;5074295;28;20025;-63
2021/12/20 02:54:21;;;;;;;7.93;1.67;;;5.50;99.90;;;;;;5076228;28;20381;-63
2021/12/20 02:56:48;;;;;;;2.65;1.50;;;5.60;99.90;;;;;;5076774;28;20067;-63
2021/12/20 02:59:15;;;;;;;8.35;2.08;;;5.60;99.90;;;;;;5073354;28;20081;-63
2021/12/20 03:01:46;;;;;;;6.20;1.92;;;5.50;99.90;;;;;;5079741;28;20028;-63
2021/12/20 03:04:11;;;;;;;2.15;0.95;;;5.40;99.90;;;;;;5077575;28;20032;-63
2021/12/20 03:06:42;;;;;;;4.18;1.35;;;5.40;99.90;;;;;;5075949;28;20024;-63
2021/12/20 03:09:12;;;;;;;9.65;1.67;;;5.50;99.90;;;;;;5072696;28;20020;-63
2021/12/20 03:11:38;;;;;;;4.07;1.65;;;5.50;99.90;;;;;;5077420;28;20541;-63
2021/12/20 03:14:13;;;;;;;3.17;1.23;;;5.50;99.90;;;;;;5071777;28;20237;-63
2021/12/20 03:16:38;;;;;;;3.10;1.02;;;5.40;99.90;;;;;;5071891;28;20029;-63
2021/12/20 03:19:04;;;;;;;7.13;2.03;;;5.40;99.90;;;;;;5077473;28;20716;-63
2021/12/20 03:21:31;;;;;;;9.60;1.75;;;5.40;99.90;;;;;;5079163;28;20039;-63
2021/12/20 03:23:56;;;;;;;6.35;2.00;;;5.40;99.90;;;;;;5071156;28;20029;-63
2021/12/20 03:26:22;;;;;;;2.60;1.45;;;5.40;99.90;;;;;;5087381;28;20102;-63
2021/12/20 03:28:48;;;;;;;3.25;1.38;;;5.30;99.90;;;;;;5071639;28;20021;-63
2021/12/20 03:31:14;;;;;;;8.57;1.85;;;5.40;99.90;;;;;;5068985;28;20024;-63
2021/12/20 03:33:39;;;;;;;4.05;1.45;;;5.40;99.90;;;;;;5078053;28;20662;-63
2021/12/20 03:36:05;;;;;;;4.57;2.08;;;5.40;99.90;;;;;;5083151;28;20024;-62
2021/12/20 03:38:31;;;;;;;5.28;1.02;;;5.40;99.90;;;;;;5077899;28;20024;-63
2021/12/20 03:40:56;;;;;;;4.47;1.55;;;5.40;99.90;;;;;;5077761;28;20024;-64
2021/12/20 03:43:30;;;;;;;4.72;2.15;;;5.30;99.90;;;;;;5070760;28;20024;-63
2021/12/20 03:45:57;;;;;;;2.78;1.50;;;5.30;99.90;;;;;;5069499;28;20019;-63
2021/12/20 03:48:23;;;;;;;3.65;1.48;;;5.30;99.90;;;;;;5077666;28;20395;-63
2021/12/20 03:50:49;;;;;;;9.77;2.25;;;5.30;99.90;;;;;;5079583;28;20078;-63
2021/12/20 03:53:15;;;;;;;8.32;1.75;;;5.30;99.90;;;;;;5074935;28;20032;-63
2021/12/20 03:55:40;;;;;;;4.13;2.17;;;5.30;99.90;;;;;;5070796;28;20037;-63
2021/12/20 03:58:06;;;;;;;6.90;2.58;;;5.40;99.90;;;;;;5070978;28;20029;-63
2021/12/20 04:00:32;;;;;;;2.67;1.40;;;5.40;99.90;;;;;;5079728;28;20059;-63
2021/12/20 04:02:58;;;;;;;9.65;2.17;;;5.30;99.90;;;;;;5071805;28;20111;-64
2021/12/20 04:05:24;;;;;;;6.40;1.95;;;5.30;99.90;;;;;;5078684;28;20035;-63
2021/12/20 04:07:49;;;;;;;5.45;2.00;;;5.30;99.90;;;;;;5077918;28;20017;-63
2021/12/20 04:10:15;;;;;;;3.10;0.98;;;5.20;99.90;;;;;;5069200;28;20024;-63
2021/12/20 04:12:41;;;;;;;6.53;2.72;;;5.20;99.90;;;;;;5083768;28;20020;-63
2021/12/20 04:15:07;;;;;;;10.48;1.88;;;5.10;99.90;;;;;;5071974;28;20024;-63
2021/12/20 04:17:32;;;;;;;7.20;1.52;;;5.20;99.90;;;;;;5073742;28;20029;-63
2021/12/20 04:19:58;;;;;;;2.30;1.25;;;5.20;99.90;;;;;;5077294;28;20058;-63
2021/12/20 04:22:24;;;;;;;2.95;1.13;;;5.10;99.90;;;;;;5077794;28;20086;-63
2021/12/20 04:24:49;;;;;;;10.23;1.80;;;5.10;99.90;;;;;;5086865;28;20036;-63
2021/12/20 04:27:15;;;;;;;4.78;1.95;;;5.10;99.90;;;;;;5092767;28;20013;-63
2021/12/20 04:29:41;;;;;;;4.25;1.33;;;5.10;99.90;;;;;;5079072;28;20044;-63
2021/12/20 04:32:07;;;;;;;21.27;3.70;;;5.20;99.90;;;;;;5070840;28;20021;-63
2021/12/20 04:34:33;;;;;;;11.77;2.00;;;5.20;99.90;;;;;;5075774;28;20488;-63
2021/12/20 04:36:59;;;;;;;3.60;1.60;;;5.20;99.90;;;;;;5077507;28;20233;-63
2021/12/20 04:39:29;;;;;;;3.15;1.60;;;5.20;99.90;;;;;;5076929;28;20036;-63
2021/12/20 04:41:55;;;;;;;2.17;1.38;;;5.20;99.90;;;;;;5080356;28;20557;-63
2021/12/20 04:44:21;;;;;;;14.50;1.20;;;5.20;99.90;;;;;;5076862;28;20021;-63
2021/12/20 04:46:47;;;;;;;3.55;1.50;;;5.20;99.90;;;;;;5069932;28;20380;-63
2021/12/20 04:49:12;;;;;;;7.07;1.63;;;5.20;99.90;;;;;;5069356;28;20036;-63
2021/12/20 04:51:38;;;;;;;0.80;0.80;;;5.10;99.90;;;;;;5070298;28;20031;-63
2021/12/20 04:54:04;;;;;;;6.28;1.73;;;4.90;99.90;;;;;;5074567;28;20036;-63
2021/12/20 04:56:29;;;;;;;9.18;1.67;;;4.80;99.90;;;;;;5077121;28;20108;-63
2021/12/20 04:58:55;;;;;;;8.07;1.17;;;4.60;99.90;;;;;;5073720;28;20029;-63
2021/12/20 05:01:21;;;;;;;15.50;1.92;;;4.50;99.90;;;;;;5073001;28;20111;-63
2021/12/20 05:03:46;;;;;;;9.43;1.75;;;4.40;99.90;;;;;;5069383;28;20074;-63
2021/12/20 05:06:12;;;;;;;1.05;0.80;;;4.20;99.90;;;;;;5071615;28;20111;-63
2021/12/20 05:08:47;;;;;;;3.97;1.25;;;4.10;99.90;;;;;;5076523;28;20030;-63
2021/12/20 05:11:13;;;;;;;5.28;1.60;;;4.00;99.90;;;;;;5070709;28;20051;-63
2021/12/20 05:13:38;;;;;;;4.10;2.08;;;3.90;99.90;;;;;;5080239;28;20048;-63
2021/12/20 05:16:04;;;;;;;1.45;1.00;;;3.80;99.90;;;;;;5071750;28;20032;-63
2021/12/20 05:18:30;;;;;;;5.90;1.80;;;3.80;99.90;;;;;;5085709;28;20127;-63
2021/12/20 05:20:56;;;;;;;5.07;1.20;;;3.70;99.90;;;;;;5083999;28;20115;-63
2021/12/20 05:23:21;;;;;;;5.82;2.08;;;3.60;99.90;;;;;;5072385;28;20020;-63
2021/12/20 05:25:47;;;;;;;9.13;2.03;;;3.50;99.90;;;;;;5090211;28;20030;-63
2021/12/20 05:28:13;;;;;;;6.88;1.90;;;3.20;99.90;;;;;;5079869;28;20029;-63
2021/12/20 05:30:38;;;;;;;0.70;0.70;;;3.00;99.90;;;;;;5071275;28;20082;-63
2021/12/20 05:33:04;;;;;;;1.73;1.20;;;3.00;99.90;;;;;;5080713;28;20032;-63
2021/12/20 05:35:31;;;;;;;13.93;1.80;;;3.00;99.90;;;;;;5075559;28;20031;-63
2021/12/20 05:37:58;;;;;;;8.73;1.00;;;2.80;99.90;;;;;;5075560;28;20077;-63
2021/12/20 05:40:24;;;;;;;1.00;0.90;;;2.80;99.90;;;;;;5077023;28;20043;-63
2021/12/20 05:42:50;;;;;;;2.75;1.00;;;2.60;99.90;;;;;;5087235;28;20020;-63
2021/12/20 05:45:16;;;;;;;7.32;1.67;;;2.50;99.90;;;;;;5072293;28;20039;-63
2021/12/20 05:47:42;;;;;;;4.28;2.30;;;2.30;99.90;;;;;;5079243;28;20016;-64
2021/12/20 05:50:09;;;;;;;13.85;1.55;;;2.10;99.90;;;;;;5080671;28;20696;-63
2021/12/20 05:52:36;;;;;;;2.00;1.35;;;2.00;99.90;;;;;;5081853;28;20548;-63
2021/12/20 05:55:02;;;;;;;3.88;1.75;;;1.90;99.90;;;;;;5081656;28;20590;-63
2021/12/20 05:57:28;;;;;;;7.07;1.10;;;1.90;99.90;;;;;;5073596;28;20020;-63
2021/12/20 05:59:54;;;;;;;2.63;1.25;;;1.80;99.90;;;;;;5074196;28;20426;-63
2021/12/20 06:02:19;;;;;;;3.78;1.88;;;1.80;99.90;;;;;;5076474;28;20064;-63
2021/12/20 06:04:50;;;;;;;2.85;1.50;;;1.70;99.90;;;;;;5078749;28;20046;-63
2021/12/20 06:07:17;;;;;;;28.67;2.08;;;1.60;99.90;;;;;;5081256;28;20515;-63
2021/12/20 06:09:43;;;;;;;1.40;0.98;;;1.70;99.90;;;;;;5078593;28;20361;-63
2021/12/20 06:12:09;;;;;;;1.40;0.95;;;1.60;99.90;;;;;;5079939;28;20023;-63
2021/12/20 06:14:34;;;;;;;5.32;1.73;;;1.70;99.90;;;;;;5072423;28;20028;-63
2021/12/20 06:17:00;;;;;;;2.13;1.58;;;1.70;99.90;;;;;;5079575;28;20115;-63
2021/12/20 06:19:26;;;;;;;2.53;1.38;;;1.80;99.90;;;;;;5071391;28;20044;-63
2021/12/20 06:21:53;;;;;;;2.60;1.77;;;1.90;99.90;;;;;;5080660;28;20012;-63
2021/12/20 06:24:18;;;;;;;7.45;1.95;;;1.90;99.90;;;;;;5084377;28;20025;-65
2021/12/20 06:26:44;;;;;;;8.98;1.60;;;1.80;99.90;;;;;;5087667;28;20043;-63
2021/12/20 06:29:10;;;;;;;1.67;1.02;;;1.80;99.90;;;;;;5079175;28;20099;-63
2021/12/20 06:31:36;;;;;;;2.60;1.88;;;1.60;99.90;;;;;;5089159;28;20153;-63
2021/12/20 06:34:01;;;;;;;1.10;0.80;;;1.40;99.90;;;;;;5090334;28;20480;-63
2021/12/20 06:36:30;;;;;;;0.77;0.77;;;1.30;99.90;;;;;;5083501;28;20033;-63
2021/12/20 06:38:57;;;;;;;1.27;1.00;;;1.10;99.90;;;;;;5078869;28;20032;-63
2021/12/20 06:41:23;;;;;;;7.82;1.35;;;1.20;99.90;;;;;;5078583;28;20016;-63
2021/12/20 06:43:49;;;;;;;6.55;2.17;;;1.00;99.90;;;;;;5071735;28;20029;-63
2021/12/20 06:46:17;;;;;;;5.07;1.50;;;1.00;99.90;;;;;;5079194;28;20016;-63
2021/12/20 06:48:43;;;;;;;0.93;0.85;;;1.10;99.90;;;;;;5076939;28;20036;-63
2021/12/20 06:51:09;;;;;;;2.53;1.63;;;1.20;99.90;;;;;;5079522;28;20059;-63
2021/12/20 06:53:35;;;;;;;5.40;1.25;;;1.30;99.90;;;;;;5076213;28;20040;-62
2021/12/20 06:56:01;;;;;;;3.92;1.65;;;1.10;99.90;;;;;;5079556;28;20028;-63
2021/12/20 06:58:26;;;;;;;2.53;1.40;;;1.00;99.90;;;;;;5075243;28;20028;-63
2021/12/20 07:00:53;;;;;;;1.55;1.00;;;0.90;99.90;;;;;;5081882;28;20115;-63
2021/12/20 07:03:20;;;;;;;9.93;2.25;;;0.80;99.90;;;;;;5081373;28;20035;-63
2021/12/20 07:05:46;;;;;;;4.50;1.80;;;0.80;99.90;;;;;;5086048;28;20473;-63
2021/12/20 07:08:11;;;;;;;12.82;1.83;;;0.60;99.90;;;;;;5074572;28;20392;-62
2021/12/20 07:10:37;;;;;;;19.38;2.95;;;0.60;99.90;;;;;;5071140;28;20112;-63
2021/12/20 07:13:03;;;;;;;3.03;2.30;;;0.70;99.90;;;;;;5071041;28;20141;-63
2021/12/20 07:15:31;;;;;;;22.50;1.58;;;0.80;99.90;;;;;;5081972;28;20096;-63
2021/12/20 07:17:57;;;;;;;2.25;1.17;;;0.80;99.90;;;;;;5079745;28;20035;-62
2021/12/20 07:20:23;;;;;;;7.97;2.03;;;0.70;99.90;;;;;;5070402;28;20092;-62
2021/12/20 07:22:48;;;;;;;5.25;2.25;;;0.60;99.90;;;;;;5071805;28;20499;-63
2021/12/20 07:25:15;;;;;;;4.53;2.47;;;0.60;99.90;;;;;;5076411;28;20056;-63
2021/12/20 07:27:41;;;;;;;1.77;1.25;;;0.40;99.90;;;;;;5078852;28;20073;-62
2021/12/20 07:30:07;;;;;;;3.90;2.60;;;0.50;99.90;;;;;;5075211;28;20034;-63
2021/12/20 07:32:33;;;;;;;1.90;1.17;;;0.60;99.90;;;;;;5074697;28;20538;-62
2021/12/20 07:34:59;;;;;;;7.82;1.73;;;0.90;99.90;;;;;;5069238;28;20025;-63
2021/12/20 07:37:26;;;;;;;13.65;2.50;;;0.80;99.90;;;;;;5076813;28;20038;-63
2021/12/20 07:39:52;;;;;;;3.03;1.33;;;0.60;99.90;;;;;;5080321;28;20058;-63
2021/12/20 07:42:18;;;;;;;1.30;1.10;;;0.50;99.90;;;;;;5083748;28;20025;-63
2021/12/20 07:44:44;;;;;;;2.13;1.52;;;0.40;99.90;;;;;;5086512;28;20366;-63
2021/12/20 07:47:10;;;;;;;5.35;2.25;;;0.50;99.90;;;;;;5076540;28;20017;-63
2021/12/20 07:49:36;;;;;;;6.95;1.95;;;0.50;99.90;;;;;;5076183;28;20047;-63
2021/12/20 07:52:03;;;;;;;1.33;1.17;;;0.40;99.90;;;;;;5080864;28;20072;-63
2021/12/20 07:54:29;;;;;;;5.45;2.70;;;0.30;99.90;;;;;;5082793;28;20032;-63
2021/12/20 07:56:54;;;;;;;2.28;1.42;;;0.30;99.90;;;;;;5065884;28;20658;-63
2021/12/20 07:59:20;;;;;;;4.15;1.75;;;0.30;99.90;;;;;;5067022;28;20073;-63
2021/12/20 08:01:46;;;;;;;10.85;2.50;;;0.40;99.90;;;;;;5066295;28;20138;-63
2021/12/20 08:04:12;;;;;;;5.95;2.17;;;0.40;99.90;;;;;;5074970;28;20039;-62
2021/12/20 08:06:37;;;;;;;2.25;1.13;;;0.30;99.90;;;;;;5073418;28;20021;-63
2021/12/20 08:09:04;;;;;;;3.03;1.55;;;0.30;99.90;;;;;;5076781;28;20111;-63
2021/12/20 08:11:29;;;;;;;1.80;0.98;;;0.30;99.90;;;;;;5071548;28;20453;-62
2021/12/20 08:13:55;;;;;;;3.33;1.38;;;0.30;99.90;;;;;;5070320;28;20042;-63
2021/12/20 08:16:21;;;;;;;2.55;1.60;;;0.40;99.90;;;;;;5070167;28;20051;-63
2021/12/20 08:18:47;;;;;;;10.70;2.47;;;0.50;99.90;;;;;;5076221;28;20072;-63
2021/12/20 08:21:15;;;;;;;8.95;2.35;;;0.60;99.90;;;;;;5075509;28;20487;-63
2021/12/20 08:23:41;;;;;;;3.63;2.25;;;0.60;99.90;;;;;;5071478;28;20034;-63
2021/12/20 08:26:07;;;;;;;3.35;1.63;;;0.60;99.90;;;;;;5082086;28;20041;-63
2021/12/20 08:28:35;;;;;;;2.97;2.05;;;0.60;99.90;;;;;;5077255;28;20028;-63
2021/12/20 08:31:02;;;;;;;2.45;1.60;;;0.50;99.90;;;;;;5078813;28;20031;-62
2021/12/20 08:33:27;;;;;;;1.45;1.08;;;0.70;99.90;;;;;;5083361;28;20127;-63
2021/12/20 08:35:53;;;;;;;3.00;1.83;;;0.70;99.90;;;;;;5069851;28;20104;-63
2021/12/20 08:38:19;;;;;;;4.35;2.15;;;0.80;99.90;;;;;;5076446;28;20801;-63
2021/12/20 08:40:47;;;;;;;5.35;2.35;;;0.70;99.90;;;;;;5080403;28;20044;-62
2021/12/20 08:43:14;;;;;;;2.80;1.73;;;0.80;99.90;;;;;;5068764;28;20087;-63
2021/12/20 08:45:40;;;;;;;5.55;1.90;;;0.80;99.90;;;;;;5071681;28;20113;-63
2021/12/20 08:48:05;;;;;;;2.60;1.42;;;0.90;99.90;;;;;;5081552;28;20024;-63
2021/12/20 08:50:31;;;;;;;16.20;2.85;;;0.90;99.90;;;;;;5075624;28;20074;-63
2021/12/20 08:52:57;;;;;;;3.03;1.50;;;1.10;99.90;;;;;;5075636;28;20468;-63
2021/12/20 08:55:23;;;;;;;3.53;1.80;;;1.10;99.90;;;;;;5076473;28;20036;-63
2021/12/20 08:57:49;;;;;;;3.47;1.52;;;1.30;99.90;;;;;;5081577;28;20029;-63
2021/12/20 09:00:24;;;;;;;6.60;3.08;;;1.70;99.90;;;;;;5076457;28;20507;-63
2021/12/20 09:02:51;;;;;;;5.18;2.30;;;2.20;99.90;;;;;;5078270;28;20537;-63
2021/12/20 09:05:17;;;;;;;6.97;2.25;;;2.90;99.90;;;;;;5078833;28;20064;-63
2021/12/20 09:07:43;;;;;;;4.38;1.70;;;3.60;99.90;;;;;;5079084;28;20020;-63
2021/12/20 09:10:11;;;;;;;6.47;2.92;;;4.30;99.90;;;;;;5071500;28;20020;-63
2021/12/20 09:12:38;;;;;;;8.43;3.10;;;4.90;99.90;;;;;;5079165;28;20032;-64
2021/12/20 09:15:05;;;;;;;7.50;2.58;;;5.40;99.90;;;;;;5077487;28;20077;-64
2021/12/20 09:17:31;;;;;;;8.38;3.08;;;5.70;99.90;;;;;;5072011;28;20626;-63
2021/12/20 09:19:57;;;;;;;11.60;2.85;;;6.20;99.90;;;;;;5073907;28;20044;-64
2021/12/20 09:22:28;;;;;;;17.85;3.15;;;6.30;99.90;;;;;;5075326;28;20031;-64
2021/12/20 09:24:55;;;;;;;16.83;2.75;;;6.90;99.90;;;;;;5074837;28;20129;-63
2021/12/20 09:27:21;;;;;;;7.18;2.83;;;7.70;99.90;;;;;;5082950;28;20029;-63
2021/12/20 09:29:47;;;;;;;9.80;3.50;;;7.90;99.90;;;;;;5078170;28;20082;-64
2021/12/20 09:32:13;;;;;;;9.15;3.20;;;8.00;99.90;;;;;;5078930;28;20540;-64
2021/12/20 09:34:39;;;;;;;10.00;3.13;;;8.40;99.90;;;;;;5076640;28;20032;-64
2021/12/20 09:37:07;;;;;;;11.80;2.17;;;9.00;99.90;;;;;;5074719;28;20039;-64
2021/12/20 09:39:38;;;;;;;10.05;3.13;;;9.60;99.90;;;;;;5076898;28;20017;-64
2021/12/20 09:42:04;;;;;;;8.13;3.08;;;9.80;99.90;;;;;;5075529;28;20154;-64
2021/12/20 09:44:32;;;;;;;9.52;3.28;;;9.70;99.90;;;;;;5079170;28;20033;-64
2021/12/20 09:46:59;;;;;;;9.75;2.92;;;10.00;99.90;;;;;;5081575;28;20039;-64
2021/12/20 09:49:25;;;;;;;11.80;3.15;;;9.50;99.90;;;;;;5080896;28;20043;-64
2021/12/20 09:51:52;;;;;;;10.73;2.30;;;9.80;99.90;;;;;;5079187;28;20029;-64
2021/12/20 09:54:18;;;;;;;7.07;2.40;;;9.80;99.90;;;;;;5078410;28;20076;-64
2021/12/20 09:56:44;;;;;;;14.18;3.15;;;9.00;99.90;;;;;;5072055;28;20055;-64
2021/12/20 09:59:16;;;;;;;13.48;2.10;;;9.90;99.90;;;;;;5075298;28;20027;-64
2021/12/20 10:01:44;;;;;;;12.60;2.25;;;10.30;99.90;;;;;;5079014;28;20086;-64
2021/12/20 10:04:10;;;;;;;5.57;1.88;;;11.00;99.90;;;;;;5079736;28;20028;-63
2021/12/20 10:06:36;;;;;;;7.53;1.95;;;11.40;99.90;;;;;;5079549;28;20055;-64
2021/12/20 10:09:10;;;;;;;8.45;2.05;;;11.60;99.90;;;;;;5075302;28;20036;-64
2021/12/20 10:11:37;;;;;;;7.32;2.05;;;11.20;99.90;;;;;;5076729;28;20376;-64
2021/12/20 10:14:19;;;;;;;6.30;1.38;;;11.20;99.90;;;;;;5081827;28;20032;-64
2021/12/20 10:16:45;;;;;;;10.20;2.03;;;12.10;99.90;;;;;;5082667;28;20020;-64
2021/12/20 10:19:30;;;;;;;5.57;1.70;;;12.30;99.90;;;;;;5076267;28;20142;-64
2021/12/20 10:21:58;;;;;;;7.55;1.85;;;12.60;99.90;;;;;;5074387;28;20029;-64
2021/12/20 10:24:35;;;;;;;6.13;1.70;;;12.70;99.90;;;;;;5077032;28;20563;-64
2021/12/20 10:27:02;;;;;;;5.35;1.73;;;12.70;99.90;;;;;;5076530;28;20519;-63
2021/12/20 10:29:28;;;;;;;7.13;2.13;;;13.10;99.90;;;;;;5074465;28;20031;-64
2021/12/20 10:31:56;;;;;;;9.32;2.40;;;13.20;99.90;;;;;;5074465;28;20104;-64
2021/12/20 10:34:35;;;;;;;9.68;2.00;;;12.90;99.90;;;;;;5076189;28;20671;-64
2021/12/20 10:37:03;;;;;;;9.00;2.05;;;12.80;99.90;;;;;;5073089;28;20102;-64
2021/12/20 10:39:48;;;;;;;15.43;2.47;;;13.20;99.90;;;;;;5077943;28;20037;-63
2021/12/20 10:42:19;;;;;;;7.43;1.85;;;12.00;99.90;;;;;;5079653;28;20620;-63
2021/12/20 10:44:44;;;;;;;;;;;12.10;99.90;;;;;;5081176;28;20391;-64
2021/12/20 10:47:25;;;;;;;6.78;1.73;;;12.30;99.90;;;;;;5076093;28;19923;-64
2021/12/20 10:49:51;;;;;;;12.52;2.22;;;13.00;99.90;;;;;;5076609;28;20024;-63
2021/12/20 10:52:28;;;;;;;6.38;1.73;;;12.50;99.90;;;;;;5076829;28;20196;-63
2021/12/20 10:54:54;;;;;;;6.63;2.30;;;11.90;99.90;;;;;;5077555;28;20028;-63
2021/12/20 10:57:31;;;;;;;5.15;1.90;;;10.80;99.90;;;;;;5069493;28;20090;-63
2021/12/20 11:00:17;;;;;;;8.95;2.15;;;9.80;99.90;;;;;;5077832;28;20380;-65
2021/12/20 11:03:23;;;;;;;11.63;2.10;;;10.20;99.90;;;;;;5075313;28;20028;-63
2021/12/20 11:06:13;;;;;;;11.68;2.45;;;10.00;99.90;;;;;;5076529;28;20038;-63
2021/12/20 11:11:22;;;;;;;7.28;1.98;;;10.10;99.90;;;;;;5074783;28;20384;-63
2021/12/20 11:13:48;;;;;;;6.70;1.90;;;11.30;99.90;;;;;;5068882;28;20412;-64
2021/12/20 11:16:26;;;;;;;4.45;1.58;;;11.70;99.90;;;;;;5069252;28;20473;-63
2021/12/20 11:19:14;;;;;;;4.72;1.98;;;12.10;99.90;;;;;;5075379;28;20040;-63
2021/12/20 11:22:03;;;;;;;9.52;1.88;;;10.50;99.90;;;;;;5068335;28;20112;-64
2021/12/20 11:24:30;;;;;;;9.75;2.38;;;9.40;99.90;;;;;;5076829;28;20111;-63
2021/12/20 11:26:57;;;;;;;22.55;2.10;;;10.10;99.90;;;;;;5087720;28;20145;-64
2021/12/20 11:29:23;;;;;;;10.63;1.90;;;10.00;99.90;;;;;;5072511;28;20017;-64
2021/12/20 11:31:50;;;;;;;2.95;1.33;;;11.60;99.90;;;;;;5068201;28;20027;-64
2021/12/20 11:34:16;;;;;;;8.55;2.58;;;11.60;99.90;;;;;;5072558;28;20437;-63
2021/12/20 11:36:42;;;;;;;8.82;1.67;;;12.00;99.90;;;;;;5069816;28;20115;-64
2021/12/20 11:39:09;;;;;;;4.60;1.63;;;12.70;99.90;;;;;;5067946;28;20103;-63
2021/12/20 11:41:35;;;;;;;5.30;1.58;;;13.80;99.90;;;;;;5070188;28;20032;-64
2021/12/20 11:44:04;;;;;;;5.07;1.60;;;14.00;99.90;;;;;;5067366;28;20554;-64
2021/12/20 11:46:47;;;;;;;8.68;2.10;;;14.60;99.90;;;;;;5069696;28;20448;-64
2021/12/20 11:49:19;;;;;;;10.23;1.75;;;15.00;99.90;;;;;;5075635;28;20454;-63
2021/12/20 11:51:55;;;;;;;7.82;1.63;;;13.40;99.90;;;;;;5070912;28;20067;-64
2021/12/20 11:54:31;;;;;;;4.05;1.15;;;12.90;99.90;;;;;;5077648;28;20052;-63
2021/12/20 11:56:57;;;;;;;8.23;1.58;;;13.40;99.90;;;;;;5071963;28;20032;-63
2021/12/20 11:59:47;;;;;;;5.18;1.42;;;13.70;99.90;;;;;;5076589;28;20028;-65
2021/12/20 12:02:26;;;;;;;12.55;1.58;;;13.80;98.90;;;;;;5072702;28;20025;-63
2021/12/20 12:05:09;;;;;;;6.13;1.70;;;12.60;99.90;;;;;;5084224;28;20024;-63
2021/12/20 12:07:37;;;;;;;9.73;2.63;;;11.80;99.90;;;;;;5073376;28;20564;-65
2021/12/20 12:10:10;;;;;;;5.40;1.77;;;10.40;99.90;;;;;;5069879;28;20048;-64
2021/12/20 12:12:45;;;;;;;15.45;1.90;;;10.50;99.90;;;;;;5077434;28;20328;-63
2021/12/20 12:15:21;;;;;;;3.92;1.30;;;11.50;99.90;;;;;;5070914;28;20064;-63
2021/12/20 12:17:52;;;;;;;8.45;2.03;;;12.00;99.90;;;;;;5067285;28;20484;-64
2021/12/20 12:20:47;;;;;;;10.85;1.83;;;11.20;99.90;;;;;;5071793;28;20101;-64
2021/12/20 12:23:22;;;;;;;7.55;1.38;;;11.00;99.90;;;;;;5070913;28;20042;-64
2021/12/20 12:25:54;;;;;;;6.40;1.65;;;11.00;99.90;;;;;;5074838;28;20025;-63
2021/12/20 12:28:22;;;;;;;6.38;1.67;;;11.40;99.90;;;;;;5083060;28;20028;-63
2021/12/20 12:31:00;;;;;;;4.63;1.42;;;10.90;99.90;;;;;;5076373;28;20029;-63
2021/12/20 12:33:29;;;;;;;8.32;1.63;;;10.60;99.90;;;;;;5077172;28;20030;-63
2021/12/20 12:35:57;;;;;;;2.80;1.20;;;11.00;99.90;;;;;;5077948;28;20430;-63
2021/12/20 12:38:46;;;;;;;3.17;1.30;;;11.10;99.90;;;;;;5079981;28;20025;-64
2021/12/20 12:41:23;;;;;;;11.18;1.70;;;11.80;99.90;;;;;;5071121;28;20056;-64
2021/12/20 12:44:07;;;;;;;4.53;1.38;;;12.60;97.50;;;;;;5073680;28;20029;-63
2021/12/20 12:46:36;;;;;;;7.90;1.98;;;12.10;99.40;;;;;;5072839;28;20363;-64
2021/12/20 12:49:20;;;;;;;2.67;1.00;;;12.90;96.50;;;;;;5075393;28;20071;-64
2021/12/20 12:52:11;;;;;;;4.18;1.52;;;13.00;96.10;;;;;;5075247;28;20021;-63
2021/12/20 12:54:53;;;;;;;4.25;1.55;;;12.40;97.40;;;;;;5074837;28;20039;-64
2021/12/20 12:57:19;;;;;;;3.40;1.05;;;12.30;94.40;;;;;;5080049;28;20020;-64
2021/12/20 12:59:47;;;;;;;3.00;1.00;;;12.30;96.10;;;;;;5086801;28;20541;-64
2021/12/20 13:02:29;;;;;;;7.78;1.90;;;11.90;99.50;;;;;;5077920;28;20492;-64
2021/12/20 13:05:07;;;;;;;5.68;1.30;;;13.20;95.90;;;;;;5080254;28;20032;-64
2021/12/20 13:07:34;;;;;;;5.10;1.42;;;13.40;93.40;;;;;;5074744;28;20084;-64
2021/12/20 13:10:06;;;;;;;5.78;1.40;;;13.00;94.90;;;;;;5078590;28;20547;-64
2021/12/20 13:15:08;;;;;;;1.75;0.73;;;13.10;93.30;;;;;;5075193;28;20343;-63
2021/12/20 13:17:42;;;;;;;2.08;0.90;;;12.50;95.10;;;;;;5070798;28;20115;-63